createdAt,value
2018-05-27T00:00:03.530Z,12.40
2018-05-27T00:02:32.611Z,10.40
2018-05-27T00:05:01.500Z,12.87
2018-05-27T00:07:30.508Z,11.13
2018-05-27T00:09:59.580Z,10.80
2018-05-27T00:12:28.868Z,11.23
2018-05-27T00:14:57.933Z,11.67
2018-05-27T00:17:26.882Z,11.30
2018-05-27T00:19:56.081Z,11.13
2018-05-27T00:22:25.141Z,10.50
2018-05-27T00:24:54.252Z,12.30
2018-05-27T00:27:23.807Z,11.30
2018-05-27T00:29:54.109Z,11.03
2018-05-27T00:32:23.196Z,10.97
2018-05-27T00:34:52.334Z,10.97
2018-05-27T00:37:21.384Z,10.67
2018-05-27T00:39:50.393Z,11.00
2018-05-27T00:42:19.335Z,12.40
2018-05-27T00:44:48.282Z,11.00
2018-05-27T00:49:52.353Z,11.30
2018-05-27T00:52:22.165Z,10.67
2018-05-27T00:54:51.013Z,11.37
2018-05-27T00:57:21.683Z,11.97
2018-05-27T00:59:51.663Z,11.17
2018-05-27T01:02:20.559Z,10.17
2018-05-27T01:04:49.550Z,10.87
2018-05-27T01:07:18.678Z,10.50
2018-05-27T01:09:47.767Z,9.50
2018-05-27T01:12:16.838Z,11.63
2018-05-27T01:14:45.933Z,10.20
2018-05-27T01:17:15.029Z,10.17
2018-05-27T01:19:44.025Z,10.43
2018-05-27T01:22:13.063Z,11.00
2018-05-27T01:24:42.528Z,10.27
2018-05-27T01:27:12.452Z,9.83
2018-05-27T01:29:42.361Z,8.43
2018-05-27T01:32:11.460Z,9.77
2018-05-27T01:34:40.607Z,9.03
2018-05-27T01:37:09.548Z,9.20
2018-05-27T01:39:39.009Z,8.87
2018-05-27T01:42:09.042Z,8.77
2018-05-27T01:44:37.967Z,10.10
2018-05-27T01:47:06.958Z,8.80
2018-05-27T01:49:36.155Z,9.43
2018-05-27T01:52:05.167Z,8.97
2018-05-27T01:54:35.051Z,9.10
2018-05-27T01:57:07.012Z,9.07
2018-05-27T01:59:36.060Z,9.13
2018-05-27T02:02:04.911Z,9.30
2018-05-27T02:04:35.311Z,9.10
2018-05-27T02:07:04.210Z,9.57
2018-05-27T02:09:33.422Z,8.07
2018-05-27T02:12:02.532Z,9.73
2018-05-27T02:14:32.498Z,10.13
2018-05-27T02:17:01.956Z,8.90
2018-05-27T02:22:05.055Z,9.03
2018-05-27T02:24:33.995Z,8.73
2018-05-27T02:27:04.986Z,9.20
2018-05-27T02:29:35.329Z,9.13
2018-05-27T02:32:05.075Z,8.97
2018-05-27T02:34:35.765Z,8.03
2018-05-27T02:37:04.748Z,7.67
2018-05-27T02:39:33.655Z,8.20
2018-05-27T02:42:03.543Z,6.70
2018-05-27T02:44:32.617Z,8.40
2018-05-27T02:47:01.555Z,6.93
2018-05-27T02:49:30.549Z,8.07
2018-05-27T02:51:59.489Z,7.97
2018-05-27T02:54:28.434Z,7.37
2018-05-27T02:56:59.073Z,7.50
2018-05-27T02:59:28.267Z,7.80
2018-05-27T03:01:57.368Z,7.53
2018-05-27T03:04:27.388Z,7.63
2018-05-27T03:06:56.479Z,7.33
2018-05-27T03:09:25.884Z,7.20
2018-05-27T03:14:29.895Z,6.83
2018-05-27T03:16:59.504Z,7.30
2018-05-27T03:22:04.168Z,6.77
2018-05-27T03:24:33.176Z,6.57
2018-05-27T03:27:02.142Z,6.57
2018-05-27T03:29:31.253Z,6.80
2018-05-27T03:32:00.762Z,7.17
2018-05-27T03:34:31.595Z,7.03
2018-05-27T03:37:01.509Z,7.00
2018-05-27T03:45:31.291Z,5.00
2018-05-27T03:48:00.271Z,5.40
2018-05-27T03:50:30.369Z,6.60
2018-05-27T03:53:02.043Z,6.20
2018-05-27T03:55:31.066Z,6.20
2018-05-27T03:57:59.890Z,5.30
2018-05-27T04:00:30.048Z,5.63
2018-05-27T04:02:58.855Z,6.07
2018-05-27T04:05:42.166Z,6.33
2018-05-27T04:08:22.830Z,7.43
2018-05-27T04:10:52.592Z,6.60
2018-05-27T04:13:21.541Z,5.90
2018-05-27T04:15:50.534Z,6.53
2018-05-27T04:18:19.487Z,6.80
2018-05-27T04:20:48.497Z,6.93
2018-05-27T04:23:18.303Z,6.20
2018-05-27T04:25:47.537Z,8.03
2018-05-27T04:28:17.313Z,6.60
2018-05-27T04:30:46.554Z,6.67
2018-05-27T04:33:15.893Z,6.50
2018-05-27T04:35:44.840Z,6.40
2018-05-27T04:38:13.833Z,5.03
2018-05-27T04:40:43.043Z,5.00
2018-05-27T04:43:11.980Z,5.17
2018-05-27T04:45:40.921Z,5.63
2018-05-27T04:48:12.685Z,6.60
2018-05-27T04:50:41.602Z,4.50
2018-05-27T04:53:11.287Z,4.90
2018-05-27T04:55:40.615Z,5.00
2018-05-27T04:58:09.628Z,4.33
2018-05-27T05:00:40.809Z,5.00
2018-05-27T05:03:09.819Z,4.20
2018-05-27T05:05:41.734Z,4.73
2018-05-27T05:08:10.801Z,4.03
2018-05-27T05:10:42.941Z,3.60
2018-05-27T05:13:14.808Z,4.70
2018-05-27T05:15:44.546Z,3.83
2018-05-27T05:18:21.918Z,4.00
2018-05-27T05:20:50.832Z,4.10
2018-05-27T05:23:19.815Z,4.10
2018-05-27T05:25:48.897Z,3.63
2018-05-27T05:28:18.807Z,4.63
2018-05-27T05:30:47.909Z,3.77
2018-05-27T05:33:19.448Z,4.63
2018-05-27T05:35:49.382Z,3.70
2018-05-27T05:38:18.504Z,3.47
2018-05-27T05:40:47.568Z,4.03
2018-05-27T05:43:16.669Z,3.60
2018-05-27T05:45:45.705Z,4.40
2018-05-27T05:48:15.579Z,3.70
2018-05-27T05:50:44.466Z,5.40
2018-05-27T05:53:13.665Z,4.40
2018-05-27T05:58:16.569Z,4.20
2018-05-27T06:00:45.836Z,4.37
2018-05-27T06:03:15.665Z,3.80
2018-05-27T06:05:44.575Z,4.77
2018-05-27T06:08:13.515Z,4.27
2018-05-27T06:10:43.415Z,4.10
2018-05-27T06:13:12.287Z,4.93
2018-05-27T06:15:41.372Z,4.43
2018-05-27T06:18:10.471Z,4.03
2018-05-27T06:20:39.489Z,3.60
2018-05-27T06:23:08.563Z,4.33
2018-05-27T06:25:37.782Z,3.93
2018-05-27T06:28:06.754Z,4.07
2018-05-27T06:30:35.765Z,3.80
2018-05-27T06:33:04.843Z,3.83
2018-05-27T06:35:33.924Z,3.60
2018-05-27T06:38:03.047Z,4.10
2018-05-27T06:40:34.804Z,3.70
2018-05-27T06:43:03.837Z,4.50
2018-05-27T06:45:32.891Z,4.03
2018-05-27T06:48:03.519Z,3.47
2018-05-27T06:50:33.637Z,3.40
2018-05-27T06:53:02.755Z,4.57
2018-05-27T06:55:31.840Z,4.57
2018-05-27T06:58:00.833Z,3.57
2018-05-27T07:00:30.306Z,3.37
2018-05-27T07:05:33.647Z,3.53
2018-05-27T07:08:02.623Z,3.20
2018-05-27T07:10:32.459Z,3.73
2018-05-27T07:13:01.348Z,3.53
2018-05-27T07:15:30.373Z,4.00
2018-05-27T07:18:02.096Z,4.07
2018-05-27T07:20:31.971Z,3.90
2018-05-27T07:23:01.017Z,3.30
2018-05-27T07:25:30.824Z,3.37
2018-05-27T07:27:59.925Z,3.27
2018-05-27T07:30:28.920Z,3.10
2018-05-27T07:32:59.601Z,4.00
2018-05-27T07:35:29.666Z,3.37
2018-05-27T07:37:58.761Z,3.40
2018-05-27T07:40:27.855Z,6.73
2018-05-27T07:42:56.884Z,6.33
2018-05-27T07:45:25.782Z,4.60
2018-05-27T07:47:55.666Z,3.00
2018-05-27T07:50:25.450Z,3.80
2018-05-27T07:52:54.571Z,3.60
2018-05-27T07:55:24.609Z,2.90
2018-05-27T07:57:54.615Z,2.70
2018-05-27T08:00:23.754Z,2.87
2018-05-27T08:02:53.736Z,3.57
2018-05-27T08:05:22.715Z,7.20
2018-05-27T08:07:51.726Z,5.27
2018-05-27T08:10:21.430Z,3.83
2018-05-27T08:12:50.374Z,2.53
2018-05-27T08:15:19.204Z,4.63
2018-05-27T08:17:48.273Z,5.23
2018-05-27T08:20:17.641Z,6.10
2018-05-27T08:22:46.765Z,3.97
2018-05-27T08:25:19.449Z,4.67
2018-05-27T08:27:49.073Z,5.03
2018-05-27T08:30:18.064Z,4.13
2018-05-27T08:32:47.147Z,3.67
2018-05-27T08:35:16.259Z,3.33
2018-05-27T08:37:45.233Z,3.20
2018-05-27T08:40:14.169Z,3.57
2018-05-27T08:42:43.167Z,3.90
2018-05-27T08:45:12.116Z,3.30
2018-05-27T08:47:43.372Z,3.37
2018-05-27T08:50:12.294Z,9.00
2018-05-27T08:52:41.764Z,5.30
2018-05-27T08:55:10.757Z,3.50
2018-05-27T08:57:40.878Z,3.10
2018-05-27T09:00:09.869Z,2.87
2018-05-27T09:02:39.685Z,3.57
2018-05-27T09:05:08.686Z,3.90
2018-05-27T09:07:37.683Z,2.60
2018-05-27T09:10:07.382Z,5.53
2018-05-27T09:12:36.201Z,4.57
2018-05-27T09:15:05.124Z,4.53
2018-05-27T09:20:09.097Z,4.13
2018-05-27T09:22:39.154Z,5.20
2018-05-27T09:25:10.999Z,4.57
2018-05-27T09:27:39.924Z,4.10
2018-05-27T09:30:08.809Z,3.27
2018-05-27T09:32:37.722Z,3.80
2018-05-27T09:35:06.749Z,3.93
2018-05-27T09:37:36.390Z,3.90
2018-05-27T09:40:05.361Z,2.90
2018-05-27T09:42:34.282Z,3.20
2018-05-27T09:45:03.260Z,3.00
2018-05-27T09:47:33.153Z,2.53
2018-05-27T09:50:02.072Z,2.60
2018-05-27T09:52:31.123Z,2.37
2018-05-27T09:55:02.885Z,3.00
2018-05-27T09:57:31.924Z,2.70
2018-05-27T10:00:00.880Z,3.40
2018-05-27T10:02:30.089Z,3.20
2018-05-27T10:04:58.974Z,2.67
2018-05-27T10:07:27.970Z,4.10
2018-05-27T10:09:59.834Z,2.80
2018-05-27T10:12:28.727Z,2.63
2018-05-27T10:14:57.814Z,2.70
2018-05-27T10:17:27.538Z,3.23
2018-05-27T10:19:57.252Z,2.50
2018-05-27T10:22:26.347Z,2.97
2018-05-27T10:24:55.554Z,3.47
2018-05-27T10:27:24.593Z,2.40
2018-05-27T10:29:53.531Z,2.90
2018-05-27T10:32:22.419Z,2.30
2018-05-27T10:34:51.313Z,2.40
2018-05-27T10:37:21.428Z,2.47
2018-05-27T10:39:51.498Z,2.80
2018-05-27T10:42:20.446Z,2.77
2018-05-27T10:44:49.807Z,3.43
2018-05-27T10:47:20.447Z,2.60
2018-05-27T10:49:50.202Z,2.20
2018-05-27T10:52:18.984Z,2.40
2018-05-27T10:57:22.092Z,2.00
2018-05-27T10:59:50.919Z,2.67
2018-05-27T11:02:19.871Z,2.30
2018-05-27T11:04:48.905Z,2.47
2018-05-27T11:07:17.893Z,2.40
2018-05-27T11:09:49.115Z,2.93
2018-05-27T11:12:18.444Z,3.03
2018-05-27T11:14:47.444Z,2.87
2018-05-27T11:17:16.399Z,3.43
2018-05-27T11:19:45.342Z,2.57
2018-05-27T11:22:14.116Z,2.10
2018-05-27T11:24:43.076Z,2.23
2018-05-27T11:27:11.969Z,2.77
2018-05-27T11:29:41.067Z,2.57
2018-05-27T11:34:43.859Z,2.30
2018-05-27T11:37:12.758Z,2.70
2018-05-27T11:39:41.793Z,3.20
2018-05-27T11:42:10.641Z,2.40
2018-05-27T11:44:39.640Z,3.20
2018-05-27T11:47:08.528Z,2.30
2018-05-27T11:49:37.522Z,2.80
2018-05-27T11:52:07.802Z,2.30
2018-05-27T11:54:37.289Z,3.27
2018-05-27T11:57:07.270Z,2.13
2018-05-27T11:59:36.297Z,2.43
2018-05-27T12:02:05.210Z,2.67
2018-05-27T12:04:34.661Z,2.90
2018-05-27T12:07:04.371Z,2.60
2018-05-27T12:09:33.373Z,2.73
2018-05-27T12:12:06.357Z,3.10
2018-05-27T12:14:35.354Z,2.80
2018-05-27T12:17:04.414Z,2.90
2018-05-27T12:19:34.367Z,2.10
2018-05-27T12:22:03.969Z,3.17
2018-05-27T12:24:32.861Z,2.33
2018-05-27T12:27:02.015Z,2.67
2018-05-27T12:29:30.952Z,2.50
2018-05-27T12:31:59.843Z,2.80
2018-05-27T12:34:28.781Z,2.63
2018-05-27T12:36:57.904Z,2.23
2018-05-27T12:39:26.873Z,2.70
2018-05-27T12:41:57.565Z,2.83
2018-05-27T12:44:26.663Z,2.60
2018-05-27T12:46:55.550Z,2.40
2018-05-27T12:49:24.443Z,2.57
2018-05-27T12:51:53.355Z,2.87
2018-05-27T12:54:23.253Z,3.20
2018-05-27T12:56:55.650Z,2.40
2018-05-27T12:59:24.729Z,2.60
2018-05-27T13:01:53.645Z,2.90
2018-05-27T13:04:22.746Z,4.20
2018-05-27T13:06:51.741Z,3.13
2018-05-27T13:09:20.696Z,3.33
2018-05-27T13:11:52.834Z,3.23
2018-05-27T13:14:21.757Z,2.57
2018-05-27T13:16:51.049Z,2.90
2018-05-27T13:19:20.844Z,3.50
2018-05-27T13:21:49.822Z,4.03
2018-05-27T13:24:19.872Z,2.70
2018-05-27T13:26:50.337Z,2.63
2018-05-27T13:29:20.134Z,2.20
2018-05-27T13:31:49.139Z,2.70
2018-05-27T13:34:18.318Z,3.03
2018-05-27T13:36:47.789Z,2.87
2018-05-27T13:39:16.860Z,2.37
2018-05-27T13:41:46.018Z,2.40
2018-05-27T13:44:14.912Z,2.60
2018-05-27T13:46:44.117Z,2.67
2018-05-27T13:49:13.091Z,2.87
2018-05-27T13:51:42.032Z,2.20
2018-05-27T13:54:11.044Z,2.80
2018-05-27T13:56:40.851Z,2.43
2018-05-27T13:59:09.800Z,3.10
2018-05-27T14:01:38.829Z,2.80
2018-05-27T14:04:08.142Z,3.10
2018-05-27T14:06:37.132Z,2.40
2018-05-27T14:09:07.230Z,2.53
2018-05-27T14:11:39.072Z,2.93
2018-05-27T14:14:07.866Z,3.13
2018-05-27T14:16:37.062Z,2.40
2018-05-27T14:19:07.213Z,2.73
2018-05-27T14:21:36.382Z,2.70
2018-05-27T14:24:05.475Z,3.00
2018-05-27T14:26:35.292Z,2.67
2018-05-27T14:29:04.488Z,2.77
2018-05-27T14:31:33.481Z,2.90
2018-05-27T14:34:02.488Z,2.30
2018-05-27T14:36:31.367Z,3.03
2018-05-27T14:39:01.080Z,3.40
2018-05-27T14:41:30.155Z,3.47
2018-05-27T14:43:59.248Z,2.90
2018-05-27T14:46:28.260Z,2.80
2018-05-27T14:48:57.902Z,2.30
2018-05-27T14:51:27.268Z,2.80
2018-05-27T14:53:56.773Z,3.17
2018-05-27T14:56:27.624Z,3.53
2018-05-27T14:58:57.441Z,2.80
2018-05-27T15:01:27.371Z,2.47
2018-05-27T15:03:57.649Z,3.07
2018-05-27T15:06:26.574Z,3.27
2018-05-27T15:08:55.461Z,3.17
2018-05-27T15:11:24.550Z,2.43
2018-05-27T15:13:54.083Z,2.80
2018-05-27T15:16:22.969Z,2.20
2018-05-27T15:18:54.755Z,3.40
2018-05-27T15:21:23.608Z,2.70
2018-05-27T15:23:52.709Z,2.93
2018-05-27T15:26:21.822Z,3.50
2018-05-27T15:28:51.619Z,3.30
2018-05-27T15:31:20.615Z,3.40
2018-05-27T15:33:49.595Z,3.80
2018-05-27T15:36:18.786Z,3.27
2018-05-27T15:38:47.682Z,2.80
2018-05-27T15:41:16.585Z,3.63
2018-05-27T15:43:45.659Z,3.00
2018-05-27T15:46:14.685Z,2.80
2018-05-27T15:48:44.591Z,3.13
2018-05-27T15:51:13.629Z,3.87
2018-05-27T15:53:42.581Z,3.87
2018-05-27T15:56:11.408Z,2.80
2018-05-27T15:58:40.399Z,3.27
2018-05-27T16:01:09.362Z,3.43
2018-05-27T16:03:40.865Z,2.63
2018-05-27T16:06:09.841Z,2.80
2018-05-27T16:08:38.701Z,3.27
2018-05-27T16:11:08.091Z,2.40
2018-05-27T16:13:37.831Z,2.93
2018-05-27T16:16:06.953Z,3.03
2018-05-27T16:18:37.030Z,3.37
2018-05-27T16:21:05.920Z,2.80
2018-05-27T16:23:34.998Z,3.57
2018-05-27T16:26:08.113Z,2.97
2018-05-27T16:28:37.302Z,2.90
2018-05-27T16:31:06.308Z,3.00
2018-05-27T16:33:35.999Z,3.00
2018-05-27T16:36:04.909Z,3.00
2018-05-27T16:38:33.799Z,2.80
2018-05-27T16:41:03.720Z,2.73
2018-05-27T16:43:32.894Z,3.20
2018-05-27T16:46:02.111Z,4.73
2018-05-27T16:48:31.514Z,2.43
2018-05-27T16:51:00.461Z,3.10
2018-05-27T16:53:29.524Z,3.37
2018-05-27T16:55:58.601Z,3.33
2018-05-27T16:58:27.640Z,2.70
2018-05-27T17:00:57.076Z,4.07
2018-05-27T17:03:26.129Z,3.93
2018-05-27T17:05:55.263Z,3.30
2018-05-27T17:08:24.291Z,3.00
2018-05-27T17:10:54.143Z,3.40
2018-05-27T17:13:23.126Z,3.43
2018-05-27T17:15:52.330Z,3.23
2018-05-27T17:18:21.434Z,3.57
2018-05-27T17:20:50.748Z,3.63
2018-05-27T17:23:19.613Z,3.20
2018-05-27T17:25:49.436Z,3.40
2018-05-27T17:28:18.397Z,4.27
2018-05-27T17:30:47.451Z,3.40
2018-05-27T17:33:18.053Z,3.50
2018-05-27T17:35:47.538Z,4.07
2018-05-27T17:38:16.621Z,3.80
2018-05-27T17:40:47.253Z,3.43
2018-05-27T17:43:16.337Z,3.00
2018-05-27T17:45:45.239Z,3.47
2018-05-27T17:48:14.444Z,3.17
2018-05-27T17:50:43.439Z,4.80
2018-05-27T17:53:12.531Z,3.93
2018-05-27T17:55:44.135Z,3.70
2018-05-27T17:58:13.077Z,4.33
2018-05-27T18:00:42.376Z,4.13
2018-05-27T18:03:13.934Z,3.77
2018-05-27T18:05:43.270Z,4.50
2018-05-27T18:08:12.371Z,5.33
2018-05-27T18:10:42.102Z,5.00
2018-05-27T18:13:11.151Z,4.80
2018-05-27T18:15:40.461Z,5.10
2018-05-27T18:20:44.105Z,4.77
2018-05-27T18:23:14.014Z,3.73
2018-05-27T18:26:00.381Z,3.00
2018-05-27T18:28:33.673Z,2.60
2018-05-27T18:31:02.778Z,3.37
2018-05-27T18:33:34.931Z,3.10
2018-05-27T18:36:05.946Z,2.67
2018-05-27T18:38:34.946Z,3.57
2018-05-27T18:41:09.874Z,2.67
2018-05-27T18:43:39.148Z,3.23
2018-05-27T18:46:08.025Z,3.30
2018-05-27T18:48:37.198Z,3.03
2018-05-27T18:51:06.368Z,2.73
2018-05-27T18:53:35.133Z,3.20
2018-05-27T18:56:03.999Z,2.80
2018-05-27T18:58:32.973Z,3.17
2018-05-27T19:01:02.159Z,3.47
2018-05-27T19:03:31.251Z,4.63
2018-05-27T19:06:00.279Z,2.90
2018-05-27T19:08:29.306Z,2.67
2018-05-27T19:10:58.210Z,4.37
2018-05-27T19:13:27.023Z,2.93
2018-05-27T19:15:55.845Z,3.50
2018-05-27T19:18:24.687Z,3.00
2018-05-27T19:20:53.491Z,2.33
2018-05-27T19:23:22.273Z,3.87
2018-05-27T19:28:25.419Z,4.70
2018-05-27T19:30:54.175Z,2.83
2018-05-27T19:33:22.986Z,3.00
2018-05-27T19:35:51.814Z,3.47
2018-05-27T19:38:20.523Z,3.20
2018-05-27T19:40:49.293Z,3.17
2018-05-27T19:43:18.125Z,3.40
2018-05-27T19:45:46.868Z,3.50
2018-05-27T19:48:15.633Z,2.63
2018-05-27T19:50:46.106Z,4.23
2018-05-27T19:53:14.834Z,2.60
2018-05-27T19:55:43.687Z,3.87
2018-05-27T19:58:15.442Z,3.00
2018-05-27T20:00:44.265Z,2.93
2018-05-27T20:03:12.974Z,3.47
2018-05-27T20:05:42.684Z,3.50
2018-05-27T20:08:11.376Z,3.47
2018-05-27T20:10:40.104Z,2.40
2018-05-27T20:13:09.812Z,3.07
2018-05-27T20:15:38.579Z,2.20
2018-05-27T20:18:07.397Z,2.60
2018-05-27T20:20:38.075Z,3.47
2018-05-27T20:23:07.224Z,3.20
2018-05-27T20:25:36.584Z,2.50
2018-05-27T20:28:05.566Z,3.37
2018-05-27T20:30:34.678Z,2.73
2018-05-27T20:33:04.274Z,2.93
2018-05-27T20:35:35.938Z,2.93
2018-05-27T20:38:05.633Z,3.63
2018-05-27T20:40:34.405Z,2.83
2018-05-27T20:43:05.098Z,3.27
2018-05-27T20:45:34.412Z,2.70
2018-05-27T20:48:04.392Z,3.30
2018-05-27T20:53:07.026Z,3.20
2018-05-27T20:55:36.071Z,2.70
2018-05-27T20:58:05.209Z,3.07
2018-05-27T21:00:34.121Z,3.00
2018-05-27T21:03:02.950Z,2.57
2018-05-27T21:05:32.108Z,2.20
2018-05-27T21:08:01.045Z,2.50
2018-05-27T21:10:29.936Z,2.67
2018-05-27T21:15:32.736Z,3.40
2018-05-27T21:18:01.942Z,3.90
2018-05-27T21:20:30.687Z,2.83
2018-05-27T21:22:59.429Z,2.50
2018-05-27T21:25:28.166Z,1.83
2018-05-27T21:27:57.003Z,2.80
2018-05-27T21:30:25.783Z,1.80
2018-05-27T21:32:54.672Z,3.77
2018-05-27T21:35:23.450Z,3.30
2018-05-27T21:37:52.203Z,2.70
2018-05-27T21:40:21.144Z,3.60
2018-05-27T21:42:49.900Z,2.50
2018-05-27T21:45:18.669Z,2.57
2018-05-27T21:47:47.411Z,3.70
2018-05-27T21:50:16.283Z,2.47
2018-05-27T21:52:45.045Z,2.63
2018-05-27T21:55:13.843Z,4.23
2018-05-27T21:57:43.446Z,2.53
2018-05-27T22:00:12.156Z,2.40
2018-05-27T22:02:40.959Z,2.73
2018-05-27T22:05:09.727Z,2.80
2018-05-27T22:07:38.494Z,2.40
2018-05-27T22:10:07.248Z,3.00
2018-05-27T22:12:36.046Z,2.37
2018-05-27T22:15:04.873Z,2.67
2018-05-27T22:17:33.559Z,2.80
2018-05-27T22:20:02.399Z,2.47
2018-05-27T22:22:32.200Z,2.50
2018-05-27T22:25:01.045Z,2.13
2018-05-27T22:27:30.605Z,2.70
2018-05-27T22:29:59.363Z,2.90
2018-05-27T22:32:28.242Z,2.20
2018-05-27T22:34:57.025Z,2.80
2018-05-27T22:37:25.783Z,2.87
2018-05-27T22:39:54.545Z,2.87
2018-05-27T22:42:27.118Z,2.93
2018-05-27T22:44:55.861Z,2.57
2018-05-27T22:47:24.563Z,2.83
2018-05-27T22:49:54.208Z,2.60
2018-05-27T22:52:22.903Z,2.87
2018-05-27T22:54:51.687Z,3.23
2018-05-27T22:57:22.705Z,3.63
2018-05-27T22:59:51.582Z,3.17
2018-05-27T23:02:20.345Z,2.93
2018-05-27T23:04:49.149Z,2.83
2018-05-27T23:07:17.982Z,2.80
2018-05-27T23:09:46.802Z,2.33
2018-05-27T23:12:21.341Z,2.20
2018-05-27T23:14:50.121Z,2.93
2018-05-27T23:17:18.932Z,3.40
2018-05-27T23:19:47.941Z,3.60
2018-05-27T23:22:16.714Z,2.60
2018-05-27T23:24:45.585Z,2.50
2018-05-27T23:27:14.436Z,3.90
2018-05-27T23:29:43.341Z,2.90
2018-05-27T23:32:12.104Z,3.30
2018-05-27T23:34:42.633Z,2.60
2018-05-27T23:37:11.843Z,2.80
2018-05-27T23:39:40.778Z,2.30
2018-05-27T23:42:12.667Z,3.63
2018-05-27T23:44:41.522Z,3.37
2018-05-27T23:47:10.329Z,2.70
2018-05-27T23:49:39.999Z,3.27
2018-05-27T23:52:09.098Z,2.80
2018-05-27T23:54:38.021Z,2.27
2018-05-27T23:57:06.978Z,2.60
2018-05-27T23:59:35.874Z,2.80
